Newport, NC

8:36 PM EDT on September 20, 2014 (GMT -0400)
APRSWXNET Newport NC US | Change Station
CLOSE
Current Station
Personal Weather Station
Location: Newport, NC
Elevation: 19 ft
Nearby Weather Stations

Elev 19 ft 34.79 °N, 76.86 °W | Updated 3 days ago

Thunderstorm
Thunderstorm
73 °F
Feels Like 73 °F
N
9
Wind Variable Wind from NE
Gusts 10 mph

Today
High -- | Low -- °F
--% Chance of Precip.
Yesterday
High -- | Low -- °F
Precip. -- in
6:54 AM 7:07 PM
Waning Crescent, 9% visible
Pressure 29.98 in
Visibility 9.0 miles
Clouds Mostly Cloudy 700 ft
Mostly Cloudy 2200 ft
Mostly Cloudy 5500 ft
Dew Point 68 °F
Humidity 83%
Rainfall 0.52 in
Snow Depth Not available.
UV 0 out of 12
Pollen 7.00 out of 12
Air Quality Not available.
Flu Activity Not available.
SPECI KNKT 210034Z 04011KT 9SM -RA BKN007 BKN022 BKN055 22/21 A2998 RMK AO2 P0001 T02220211

More Conditions Fewer Conditions

Pressure 29.98 in
Visibility 9.0 miles
Clouds Mostly Cloudy 700 ft
Mostly Cloudy 2200 ft
Mostly Cloudy 5500 ft
Dew Point 68 °F
Humidity 83%
Rainfall 0.52 in
Snow Depth Not available.
UV 0 out of 12
Pollen 7.00 out of 12
Air Quality Not available.
Flu Activity Not available.
SPECI KNKT 210034Z 04011KT 9SM -RA BKN007 BKN022 BKN055 22/21 A2998 RMK AO2 P0001 T02220211

More Conditions Fewer Conditions

10-Day Weather Forecast

Almanac

Astronomy

Sep. 20, 2014 Rise Set
Actual Time 6:54 AM EDT 7:07 PM EDT
Civil Twilight 6:28 AM EDT 7:32 PM EDT
Nautical Twilight 5:59 AM EDT 8:01 PM EDT
Astronomical Twilight 5:29 AM EDT 8:31 PM EDT
Moon 3:37 AM EDT (9/20) 5:03 PM EDT (9/20)
Length of Visible Light 13h 03m
Length of Day
12h 13m
Tomorrow will be 2m 9s shorter.
Waning Crescent, 9% of the Moon is Illuminated
Today
Waning Crescent
Sep 24
New
Oct 1
First Quarter
Oct 8
Full
Oct 15
Last Quarter

Today's Extremes

State Highs State Lows

Community

WunderPhotos

Upload Photos

1,755,000 photos uploaded!

WunderBlogs® & News

Nearby

Snow Depth

Station Depth Elevation
No new snow has been reported.

Earthquake Activity

City Distance Mag. Time & Date
No recent earthquake activity has been reported nearby.
Minimum magnitude displayed is 2.5.

Coastal Water Temperatures

Place Temperature
Beaufort, NC 75.9 °F
Johnny Mercer Pier, Wrightsville Beach, NC 80.1 °F
Hatteras, NC 73.0 °F
Oregon Inlet Marina, NC 73.0 °F

Nearby Weather Stations